METAR stanice u blizini

 

LYBE - Beograd / Surčin, Srbija
Ažurirano: 13/05/2021 19:30
Vedro
Vedro
 Pravac vetra JJI
Vetar: JJI 9 km/h
Temperatura: 17°C
Tačka rose: 13°C
Vlažnost: 77%
Pritisak: 1004 hPa
Pregled: Vedro
Vidljivost: greater than 10 km
2021/05/13 17:30 LYBE 131730Z 16005KT CAVOK 17/13 Q1004 NOSIG
LYBT - Beograd / Batajnica, Srbija
Ažurirano: 13/05/2021 19:30
Vedro
Vedro
 Pravac vetra JI
Vetar: JI 7 km/h
Temperatura: 15°C
Tačka rose: 14°C
Vlažnost: 94%
Pritisak: 1004 hPa
Pregled: Vedro
Vidljivost: greater than 10 km
2021/05/13 17:30 LYBT 131730Z 13004KT CAVOK 15/14 Q1004 NOSIG
LYVR - Vršac, Srbija
Ažurirano: 13/05/2021 19:30
Slaba kiša, Showers, Delimično oblačno
Slaba kiša, Showers, Delimično oblačno
 Pravac vetra JJI
Vetar: JJI 24 km/h
Temperatura: 15°C
Tačka rose: 12°C
Vlažnost: 82%
Pritisak: 1004 hPa
Pregled: Slaba kiša, Showers
Oblaci: Partly Cloudy
Vidljivost: 10 km
2021/05/13 17:30 LYVR 131730Z AUTO 16013KT 9999 -SHRA NSC 15/12 Q1004
 
LYKV - Lađevci, Srbija
Ažurirano: 13/05/2021 19:30
Partly Cloudy
Partly Cloudy
 Pravac vetra varies
Vetar: varies 4 km/h
Temperatura: 16°C
Tačka rose: 10°C
Vlažnost: 68%
Pritisak: 1006 hPa
Oblaci: Partly Cloudy
Vidljivost: 10 km
Cloud details: Partly Cloudy 1433 m
2021/05/13 17:30 LYKV 131730Z VRB02KT 9999 SCT047 16/10 Q1006 NOSIG
LYNI - Niš, Srbija
Ažurirano: 13/05/2021 19:30
Partly Cloudy
Partly Cloudy
 Pravac vetra JJZ
Vetar: JJZ 7 km/h
Temperatura: 16°C
Tačka rose: 8°C
Vlažnost: 59%
Pritisak: 1006 hPa
Oblaci: Partly Cloudy
Vidljivost: 10 km
Cloud details: Partly Cloudy 1219 m
2021/05/13 17:30 LYNI 131730Z 21004KT 180V250 9999 SCT040 16/08 Q1006 NOSIG
BKPR - Priština, Srbija
Ažurirano: 13/05/2021 19:30
Partly Cloudy
Partly Cloudy
 Pravac vetra ZJZ
Vetar: ZJZ 22 km/h
Temperatura: 15°C
Tačka rose: 5°C
Vlažnost: 51%
Pritisak: 1008 hPa
Oblaci: Partly Cloudy
Vidljivost: 10 km
Cloud details: Partly Cloudy 1219 m
2021/05/13 17:30 BKPR 131730Z 25012KT 9999 SCT040 15/05 Q1008 NOSIG
 
LHPP - Pecs / Pogany, Hungary
Ažurirano: 13/05/2021 16:15
NOT Current
Mostly Cloudy
Mostly Cloudy
 Pravac vetra Z
Vetar: Z 17 km/h
Temperatura: 17°C
Tačka rose: 9°C
Vlažnost: 59%
Pritisak: 1003 hPa
Oblaci: Mostly Cloudy
Vidljivost: 10 km
Cloud details: Few Clouds 1219 m
Few Clouds 1219 m
Mostly Cloudy 1707 m
2021/05/13 14:15 LHPP 131415Z 27009KT 9999 FEW040 FEW040TCU BKN056 17/09 Q1003
LHUD - Szeged, Hungary
Ažurirano: 04/07/2019 01:45
NOT Current
Vedro
Vedro
 Pravac vetra S
Vetar: S 7 km/h
Temperatura: 18°C
Tačka rose: 13°C
Vlažnost: 73%
Pritisak: 1019 hPa
Pregled: Vedro
Vidljivost: greater than 10 km
2019/07/03 23:45 LHUD 032345Z 35004KT CAVOK 18/13 Q1019
LRTR - Timisoara, Romania
Ažurirano: 13/05/2021 19:30
Vedro
Vedro
 Pravac vetra IJI
Vetar: IJI 9 km/h
Temperatura: 14°C
Tačka rose: 13°C
Vlažnost: 94%
Pritisak: 1004 hPa
Pregled: Vedro
Vidljivost: greater than 10 km
2021/05/13 17:30 LRTR 131730Z 12005KT CAVOK 14/13 Q1004 R11/190095
 
LRCV - Craiova, Romania
Ažurirano: 13/05/2021 19:30
Partly Cloudy
Partly Cloudy
 Pravac vetra I
Vetar: I 9 km/h
Temperatura: 14°C
Tačka rose: 11°C
Vlažnost: 82%
Pritisak: 1006 hPa
Oblaci: Partly Cloudy
Vidljivost: 8 km
Cloud details: Few Clouds 1219 m
Partly Cloudy 1524 m
2021/05/13 17:30 LRCV 131730Z 10005KT 8000 FEW040 SCT050CB 14/11 Q1006 R09/29//95
LBSF - Sofia, Bulgaria
Ažurirano: 13/05/2021 19:30
Mostly Cloudy
Mostly Cloudy
 Pravac vetra Z
Vetar: Z 6 km/h
Temperatura: 16°C
Tačka rose: 9°C
Vlažnost: 63%
Pritisak: 1006 hPa
Oblaci: Mostly Cloudy
Vidljivost: 10 km
Cloud details: Few Clouds 1067 m
Mostly Cloudy 1951 m
2021/05/13 17:30 LBSF 131730Z 28003KT 200V320 9999 FEW035TCU BKN064 16/09 Q1006 NOSIG
LWSK - Skoplje, Makedonija
Ažurirano: 13/05/2021 19:30
Partly Cloudy
Partly Cloudy
 Pravac vetra Z
Vetar: Z 7 km/h
Temperatura: 19°C
Tačka rose: 3°C
Vlažnost: 35%
Pritisak: 1007 hPa
Oblaci: Partly Cloudy
Vidljivost: 10 km
Cloud details: Partly Cloudy 3048 m
2021/05/13 17:30 LWSK 131730Z 28004KT 9999 SCT100 19/03 Q1007 NOSIG
 
LYPG - Podgorica, Crna Gora
Ažurirano: 13/05/2021 19:30
Mostly Cloudy
Mostly Cloudy
 Pravac vetra varies
Vetar: varies 2 km/h
Temperatura: 15°C
Tačka rose: 12°C
Vlažnost: 82%
Pritisak: 1009 hPa
Oblaci: Mostly Cloudy
Vidljivost: 10 km
Cloud details: Partly Cloudy 914 m
Mostly Cloudy 2134 m
2021/05/13 17:30 LYPG 131730Z VRB01KT 9999 SCT030 BKN070 15/12 Q1009 NOSIG
LQSA - Sarajevo, Bosna i Hercegovina
Ažurirano: 13/05/2021 19:30
Mostly Cloudy
Mostly Cloudy
 Pravac vetra SSZ
Vetar: SSZ 13 km/h
Temperatura: 13°C
Tačka rose: 7°C
Vlažnost: 67%
Pritisak: 1007 hPa
Oblaci: Mostly Cloudy
Vidljivost: 10 km
Cloud details: Mostly Cloudy 1524 m
2021/05/13 17:30 LQSA 131730Z 34007KT 300V010 9999 BKN050 13/07 Q1007
LDOS - Osijek, Hrvatksa
Ažurirano: 13/05/2021 19:30
Partly Cloudy
Partly Cloudy
 Pravac vetra JZ
Vetar: JZ 11 km/h
Temperatura: 17°C
Tačka rose: 11°C
Vlažnost: 68%
Pritisak: 1004 hPa
Oblaci: Partly Cloudy
Vidljivost: 10 km
Cloud details: Few Clouds 823 m
Partly Cloudy 1128 m
2021/05/13 17:30 LDOS 131730Z 23006KT 210V270 9999 FEW027 SCT037 17/11 Q1004